createdAt,value
2022-12-25T00:00:08.243Z,100006.78
2022-12-25T00:02:56.587Z,100010.16
2022-12-25T00:05:44.692Z,100015.75
2022-12-25T00:08:34.501Z,100019.63
2022-12-25T00:11:23.104Z,100026.25
2022-12-25T00:14:11.493Z,100024.63
2022-12-25T00:16:59.753Z,100034.53
2022-12-25T00:19:47.978Z,100027.28
2022-12-25T00:22:36.058Z,100020.22
2022-12-25T00:25:25.378Z,100007.59
2022-12-25T00:28:13.335Z,99999.56
2022-12-25T00:31:05.657Z,99997.25
2022-12-25T00:33:54.134Z,99988.13
2022-12-25T00:36:42.477Z,99983.69
2022-12-25T00:39:30.472Z,99982.50
2022-12-25T00:42:19.865Z,99982.38
2022-12-25T00:45:08.755Z,99989.34
2022-12-25T00:47:56.720Z,99979.31
2022-12-25T00:50:44.769Z,99985.59
2022-12-25T00:53:33.238Z,99985.09
2022-12-25T00:56:21.163Z,99995.41
2022-12-25T00:59:10.640Z,100006.25
2022-12-25T01:02:18.844Z,100007.25
2022-12-25T01:05:08.427Z,100007.50
2022-12-25T01:07:56.405Z,100003.78
2022-12-25T01:10:43.740Z,100003.84
2022-12-25T01:13:34.559Z,100018.47
2022-12-25T01:16:24.034Z,100021.41
2022-12-25T01:19:12.098Z,100025.31
2022-12-25T01:22:00.083Z,100013.72
2022-12-25T01:24:48.244Z,100013.28
2022-12-25T01:27:36.504Z,100018.06
2022-12-25T01:30:24.758Z,100023.75
2022-12-25T01:33:14.078Z,100026.75
2022-12-25T01:36:02.121Z,100026.69
2022-12-25T01:38:50.890Z,100022.34
2022-12-25T01:41:38.946Z,100035.13
2022-12-25T01:45:18.583Z,100032.97
2022-12-25T01:48:12.803Z,100033.50
2022-12-25T01:51:06.629Z,100032.25
2022-12-25T01:53:58.787Z,100028.38
2022-12-25T01:56:49.983Z,100025.56
2022-12-25T01:59:38.048Z,100019.13
2022-12-25T02:02:26.901Z,100028.44
2022-12-25T02:05:19.978Z,99978.44
2022-12-25T02:08:11.021Z,100018.03
2022-12-25T02:10:59.227Z,100011.28
2022-12-25T02:13:47.204Z,100001.13
2022-12-25T02:16:58.317Z,99994.63
2022-12-25T02:20:19.447Z,99981.78
2022-12-25T02:23:31.396Z,99982.16
2022-12-25T02:26:36.582Z,99974.13
2022-12-25T02:29:33.166Z,99961.16
2022-12-25T02:32:27.660Z,99963.63
2022-12-25T02:35:21.144Z,99961.72
2022-12-25T02:38:14.018Z,99968.16
2022-12-25T02:41:07.511Z,99971.06
2022-12-25T02:44:14.292Z,99976.28
2022-12-25T02:47:25.200Z,99971.13
2022-12-25T02:50:33.744Z,99955.88
2022-12-25T02:53:39.913Z,99949.47
2022-12-25T02:56:47.089Z,99959.38
2022-12-25T02:59:56.336Z,99949.06
2022-12-25T03:03:20.544Z,99942.69
2022-12-25T03:06:27.233Z,99932.34
2022-12-25T03:09:38.585Z,99929.19
2022-12-25T03:12:39.711Z,99934.06
2022-12-25T03:15:45.396Z,99933.94
2022-12-25T03:18:36.177Z,99920.84
2022-12-25T03:21:41.734Z,99926.09
2022-12-25T03:24:47.431Z,99923.72
2022-12-25T03:27:36.454Z,99919.06
2022-12-25T03:30:45.460Z,99912.63
2022-12-25T03:34:09.321Z,99914.81
2022-12-25T03:37:18.286Z,99902.34
2022-12-25T03:40:32.789Z,99913.06
2022-12-25T03:43:46.859Z,99914.63
2022-12-25T03:47:13.319Z,99913.53
2022-12-25T03:50:25.141Z,99916.47
2022-12-25T03:53:37.028Z,99905.06
2022-12-25T03:56:43.764Z,99913.25
2022-12-25T03:59:49.464Z,99908.75
2022-12-25T04:02:55.425Z,99897.03
2022-12-25T04:06:02.580Z,99889.84
2022-12-25T04:09:19.516Z,99897.38
2022-12-25T04:12:25.394Z,99897.63
2022-12-25T04:15:31.139Z,99896.47
2022-12-25T04:18:36.678Z,99899.25
2022-12-25T04:21:43.719Z,99880.06
2022-12-25T04:24:49.473Z,99891.81
2022-12-25T04:27:55.302Z,99878.94
2022-12-25T04:31:00.967Z,99877.69
2022-12-25T04:34:06.290Z,99876.47
2022-12-25T04:36:55.602Z,99880.13
2022-12-25T04:39:43.543Z,99880.97
2022-12-25T04:42:31.751Z,99879.78
2022-12-25T04:45:20.112Z,99883.06
2022-12-25T04:48:08.143Z,99880.69
2022-12-25T04:50:56.309Z,99890.19
2022-12-25T04:53:46.410Z,99843.53
2022-12-25T04:56:36.451Z,99896.28
2022-12-25T04:59:28.064Z,99896.63
2022-12-25T05:02:16.078Z,99894.22
2022-12-25T05:05:04.362Z,99890.78
2022-12-25T05:07:52.390Z,99879.41
2022-12-25T05:10:41.992Z,99885.34
2022-12-25T05:13:29.970Z,99885.78
2022-12-25T05:16:19.877Z,99888.16
2022-12-25T05:19:08.241Z,99882.13
2022-12-25T05:21:56.340Z,99883.03
2022-12-25T05:24:44.378Z,99881.91
2022-12-25T05:27:33.680Z,99882.25
2022-12-25T05:30:21.635Z,99880.06
2022-12-25T05:33:09.583Z,99872.25
2022-12-25T05:35:57.745Z,99862.03
2022-12-25T05:38:45.694Z,99866.03
2022-12-25T05:41:34.751Z,99863.75
2022-12-25T05:44:24.460Z,99864.53
2022-12-25T05:47:12.427Z,99848.72
2022-12-25T05:50:00.373Z,99852.06
2022-12-25T05:52:48.281Z,99850.91
2022-12-25T05:55:36.666Z,99853.69
2022-12-25T05:58:24.642Z,99859.25
2022-12-25T06:01:16.928Z,99875.00
2022-12-25T06:04:10.318Z,99880.97
2022-12-25T06:07:00.486Z,99889.53
2022-12-25T06:09:48.635Z,99887.66
2022-12-25T06:12:36.615Z,99888.81
2022-12-25T06:15:24.559Z,99891.50
2022-12-25T06:18:13.902Z,99883.63
2022-12-25T06:21:01.844Z,99878.50
2022-12-25T06:23:50.205Z,99883.22
2022-12-25T06:26:38.179Z,99872.63
2022-12-25T06:29:26.216Z,99863.22
2022-12-25T06:32:14.121Z,99860.84
2022-12-25T06:35:03.674Z,99850.13
2022-12-25T06:37:51.889Z,99856.13
2022-12-25T06:40:39.881Z,99851.03
2022-12-25T06:43:27.846Z,99846.66
2022-12-25T06:46:15.905Z,99836.41
2022-12-25T06:49:03.875Z,99835.50
2022-12-25T06:51:53.189Z,99843.47
2022-12-25T06:54:41.117Z,99846.88
2022-12-25T06:57:29.056Z,99841.28
2022-12-25T07:00:17.178Z,99853.25
2022-12-25T07:03:05.803Z,99852.47
2022-12-25T07:05:33.632Z,99851.72
2022-12-25T07:08:02.956Z,99845.81
2022-12-25T07:10:30.653Z,99853.66
2022-12-25T07:12:58.294Z,99857.56
2022-12-25T07:15:26.009Z,99852.09
2022-12-25T07:17:53.652Z,99842.75
2022-12-25T07:20:21.315Z,99845.53
2022-12-25T07:22:48.992Z,99831.94
2022-12-25T07:25:17.947Z,99822.72
2022-12-25T07:27:45.628Z,99831.69
2022-12-25T07:30:14.255Z,99828.22
2022-12-25T07:32:46.821Z,99823.53
2022-12-25T07:35:17.645Z,99812.00
2022-12-25T07:37:45.383Z,99797.88
2022-12-25T07:40:13.757Z,99796.72
2022-12-25T07:42:42.742Z,99797.41
2022-12-25T07:45:11.374Z,99818.19
2022-12-25T07:47:39.645Z,99811.22
2022-12-25T07:50:08.536Z,99803.22
2022-12-25T07:52:43.033Z,99807.91
2022-12-25T07:55:11.412Z,99824.56
2022-12-25T07:57:39.028Z,99820.94
2022-12-25T08:00:09.512Z,99824.22
2022-12-25T08:02:40.841Z,99829.03
2022-12-25T08:05:09.657Z,99816.88
2022-12-25T08:07:37.373Z,99827.94
2022-12-25T08:10:05.751Z,99830.31
2022-12-25T08:12:33.644Z,99813.03
2022-12-25T08:15:01.326Z,99829.16
2022-12-25T08:17:30.513Z,99824.13
2022-12-25T08:19:58.167Z,99831.22
2022-12-25T08:22:25.826Z,99830.84
2022-12-25T08:24:53.497Z,99816.69
2022-12-25T08:27:21.135Z,99813.22
2022-12-25T08:29:48.811Z,99817.09
2022-12-25T08:32:16.488Z,99811.28
2022-12-25T08:34:45.558Z,99818.63
2022-12-25T08:37:13.263Z,99818.31
2022-12-25T08:39:41.089Z,99811.13
2022-12-25T08:42:08.909Z,99793.34
2022-12-25T08:44:37.519Z,99791.88
2022-12-25T08:47:05.750Z,99776.09
2022-12-25T08:49:33.733Z,99755.25
2022-12-25T08:52:02.982Z,99726.53
2022-12-25T08:54:32.416Z,99708.91
2022-12-25T08:57:03.050Z,99716.75
2022-12-25T08:59:30.933Z,99740.84
2022-12-25T09:01:58.791Z,99754.59
2022-12-25T09:04:26.732Z,99766.38
2022-12-25T09:06:54.372Z,99766.47
2022-12-25T09:09:27.065Z,99781.84
2022-12-25T09:11:54.959Z,99783.16
2022-12-25T09:14:23.001Z,99782.81
2022-12-25T09:16:51.003Z,99795.38
2022-12-25T09:19:18.811Z,99812.75
2022-12-25T09:21:46.603Z,99811.19
2022-12-25T09:24:14.487Z,99774.13
2022-12-25T09:26:43.550Z,99805.25
2022-12-25T09:29:11.246Z,99806.47
2022-12-25T09:31:38.960Z,99802.56
2022-12-25T09:34:06.714Z,99814.38
2022-12-25T09:36:34.454Z,99806.94
2022-12-25T09:39:02.443Z,99822.72
2022-12-25T09:41:34.893Z,99820.00
2022-12-25T09:44:08.991Z,99808.56
2022-12-25T09:46:42.352Z,99804.22
2022-12-25T09:49:19.723Z,99790.06
2022-12-25T09:51:51.287Z,99789.25
2022-12-25T09:54:23.228Z,99776.69
2022-12-25T09:56:51.092Z,99765.63
2022-12-25T09:59:26.190Z,99771.09
2022-12-25T10:02:21.187Z,99758.06
2022-12-25T10:05:04.367Z,99761.16
2022-12-25T10:07:44.356Z,99758.78
2022-12-25T10:10:25.852Z,99750.53
2022-12-25T10:13:05.208Z,99734.03
2022-12-25T10:15:43.381Z,99704.09
2022-12-25T10:18:44.594Z,99708.06
2022-12-25T10:21:15.336Z,99700.59
2022-12-25T10:23:48.318Z,99708.47
2022-12-25T10:26:18.314Z,99704.06
2022-12-25T10:28:47.779Z,99711.56
2022-12-25T10:31:21.333Z,99710.31
2022-12-25T10:33:50.258Z,99703.22
2022-12-25T10:36:20.660Z,99707.94
2022-12-25T10:38:48.438Z,99708.34
2022-12-25T10:41:29.382Z,99708.75
2022-12-25T10:43:58.553Z,99698.47
2022-12-25T10:46:30.001Z,99704.34
2022-12-25T10:49:00.514Z,99701.25
2022-12-25T10:51:32.884Z,99703.94
2022-12-25T10:54:03.193Z,99696.88
2022-12-25T10:56:31.217Z,99703.19
2022-12-25T10:59:06.137Z,99705.59
2022-12-25T11:01:35.436Z,99706.03
2022-12-25T11:04:03.520Z,99705.69
2022-12-25T11:06:34.433Z,99699.78
2022-12-25T11:09:03.591Z,99704.88
2022-12-25T11:11:32.031Z,99700.91
2022-12-25T11:14:02.684Z,99698.13
2022-12-25T11:16:33.971Z,99701.72
2022-12-25T11:19:03.611Z,99695.38
2022-12-25T11:21:33.639Z,99701.25
2022-12-25T11:24:03.420Z,99701.25
2022-12-25T11:26:36.432Z,99704.03
2022-12-25T11:29:06.473Z,99696.13
2022-12-25T11:31:40.106Z,99695.38
2022-12-25T11:34:20.553Z,99701.72
2022-12-25T11:36:50.543Z,99702.88
2022-12-25T11:39:27.883Z,99694.97
2022-12-25T11:42:00.107Z,99679.28
2022-12-25T11:44:38.685Z,99685.97
2022-12-25T11:47:12.932Z,99685.94
2022-12-25T11:49:50.296Z,99677.59
2022-12-25T11:52:20.985Z,99677.88
2022-12-25T11:54:54.247Z,99675.91
2022-12-25T11:57:25.104Z,99658.91
2022-12-25T11:59:56.968Z,99670.31
2022-12-25T12:02:32.124Z,99667.13
2022-12-25T12:05:10.123Z,99642.19
2022-12-25T12:07:42.643Z,99635.09
2022-12-25T12:10:18.077Z,99608.28
2022-12-25T12:12:56.328Z,99586.75
2022-12-25T12:15:30.460Z,99590.13
2022-12-25T12:18:09.489Z,99596.69
2022-12-25T12:20:39.000Z,99594.56
2022-12-25T12:23:16.439Z,99506.16
2022-12-25T12:25:45.776Z,99592.94
2022-12-25T12:28:21.568Z,99581.09
2022-12-25T12:30:59.694Z,99580.03
2022-12-25T12:33:32.544Z,99569.50
2022-12-25T12:36:05.037Z,99592.78
2022-12-25T12:38:35.104Z,99606.69
2022-12-25T12:41:04.677Z,99607.25
2022-12-25T12:43:37.271Z,99615.63
2022-12-25T12:46:16.513Z,99624.00
2022-12-25T12:48:46.624Z,99640.94
2022-12-25T12:51:29.224Z,99638.66
2022-12-25T12:54:18.111Z,99650.91
2022-12-25T12:56:56.482Z,99655.50
2022-12-25T12:59:25.129Z,99651.16
2022-12-25T13:02:04.677Z,99640.03
2022-12-25T13:04:48.598Z,99598.31
2022-12-25T13:07:32.192Z,99638.78
2022-12-25T13:10:11.532Z,99623.78
2022-12-25T13:12:39.432Z,99628.91
2022-12-25T13:15:13.697Z,99620.66
2022-12-25T13:17:44.225Z,99606.81
2022-12-25T13:20:21.162Z,99615.38
2022-12-25T13:22:52.947Z,99598.41
2022-12-25T13:25:23.343Z,99594.72
2022-12-25T13:27:59.771Z,99597.34
2022-12-25T13:30:27.924Z,99598.50
2022-12-25T13:32:56.942Z,99593.41
2022-12-25T13:35:25.033Z,99597.81
2022-12-25T13:37:54.720Z,99580.38
2022-12-25T13:40:26.051Z,99587.47
2022-12-25T13:42:57.829Z,99585.50
2022-12-25T13:45:28.807Z,99586.41
2022-12-25T13:47:58.065Z,99573.06
2022-12-25T13:50:29.097Z,99566.47
2022-12-25T13:53:12.078Z,99555.06
2022-12-25T13:55:41.001Z,99552.38
2022-12-25T13:58:19.459Z,99541.72
2022-12-25T14:00:49.634Z,99546.47
2022-12-25T14:03:21.211Z,99555.09
2022-12-25T14:05:57.118Z,99545.69
2022-12-25T14:08:28.368Z,99503.72
2022-12-25T14:10:57.838Z,99548.47
2022-12-25T14:13:28.807Z,99558.72
2022-12-25T14:15:57.602Z,99565.75
2022-12-25T14:18:26.917Z,99559.41
2022-12-25T14:21:03.571Z,99550.38
2022-12-25T14:23:41.175Z,99577.50
2022-12-25T14:26:16.168Z,99586.13
2022-12-25T14:28:48.930Z,99584.91
2022-12-25T14:31:17.674Z,99571.19
2022-12-25T14:33:46.861Z,99585.03
2022-12-25T14:36:15.367Z,99589.00
2022-12-25T14:38:44.587Z,99594.56
2022-12-25T14:41:33.120Z,99585.97
2022-12-25T14:44:02.502Z,99582.06
2022-12-25T14:46:32.212Z,99590.97
2022-12-25T14:49:01.695Z,99597.66
2022-12-25T14:51:31.452Z,99605.91
2022-12-25T14:54:03.700Z,99595.63
2022-12-25T14:56:37.989Z,99591.63
2022-12-25T14:59:07.647Z,99582.69
2022-12-25T15:01:38.228Z,99587.91
2022-12-25T15:04:09.077Z,99585.97
2022-12-25T15:06:37.590Z,99580.47
2022-12-25T15:09:14.343Z,99547.97
2022-12-25T15:11:42.382Z,99572.47
2022-12-25T15:14:10.074Z,99583.56
2022-12-25T15:16:44.036Z,99576.94
2022-12-25T15:19:24.920Z,99573.41
2022-12-25T15:21:53.848Z,99568.38
2022-12-25T15:24:22.936Z,99578.25
2022-12-25T15:26:53.138Z,99579.88
2022-12-25T15:29:44.504Z,99574.03
2022-12-25T15:32:15.172Z,99584.78
2022-12-25T15:34:42.888Z,99577.34
2022-12-25T15:37:10.660Z,99569.88
2022-12-25T15:39:39.822Z,99572.28
2022-12-25T15:42:12.771Z,99578.94
2022-12-25T15:44:41.853Z,99574.22
2022-12-25T15:47:10.607Z,99581.72
2022-12-25T15:49:38.360Z,99590.00
2022-12-25T15:52:06.441Z,99588.41
2022-12-25T15:54:34.771Z,99582.91
2022-12-25T15:57:06.228Z,99585.25
2022-12-25T15:59:34.526Z,99582.91
2022-12-25T16:02:02.972Z,99595.09
2022-12-25T16:04:31.727Z,99605.72
2022-12-25T16:07:00.402Z,99611.25
2022-12-25T16:09:28.136Z,99614.81
2022-12-25T16:11:55.834Z,99602.56
2022-12-25T16:14:24.893Z,99604.13
2022-12-25T16:16:52.610Z,99601.78
2022-12-25T16:19:20.293Z,99607.28
2022-12-25T16:21:48.218Z,99603.34
2022-12-25T16:24:15.907Z,99595.88
2022-12-25T16:26:44.352Z,99592.75
2022-12-25T16:29:12.055Z,99564.81
2022-12-25T16:31:41.653Z,99579.75
2022-12-25T16:34:10.331Z,99548.25
2022-12-25T16:36:38.023Z,99567.94
2022-12-25T16:39:06.309Z,99560.47
2022-12-25T16:41:35.183Z,99550.59
2022-12-25T16:44:08.952Z,99555.28
2022-12-25T16:46:37.863Z,99531.69
2022-12-25T16:49:07.321Z,99549.69
2022-12-25T16:51:35.055Z,99571.59
2022-12-25T16:54:02.789Z,99595.56
2022-12-25T16:56:30.821Z,99600.94
2022-12-25T16:58:59.314Z,99593.47
2022-12-25T17:01:27.254Z,99602.97
2022-12-25T17:03:55.204Z,99595.03
2022-12-25T17:06:26.861Z,99585.72
2022-12-25T17:08:57.877Z,99592.84
2022-12-25T17:11:29.463Z,99596.47
2022-12-25T17:13:57.590Z,99593.78
2022-12-25T17:16:27.225Z,99567.44
2022-12-25T17:18:55.629Z,99610.28
2022-12-25T17:21:26.286Z,99613.78
2022-12-25T17:23:59.631Z,99615.00
2022-12-25T17:26:29.998Z,99605.97
2022-12-25T17:28:58.096Z,99607.91
2022-12-25T17:31:25.862Z,99613.47
2022-12-25T17:33:53.820Z,99614.31
2022-12-25T17:36:22.720Z,99558.44
2022-12-25T17:38:51.770Z,99600.47
2022-12-25T17:41:20.830Z,99598.47
2022-12-25T17:43:49.280Z,99596.09
2022-12-25T17:46:19.513Z,99600.81
2022-12-25T17:48:47.337Z,99601.63
2022-12-25T17:51:16.535Z,99603.28
2022-12-25T17:53:46.287Z,99598.53
2022-12-25T17:56:16.294Z,99602.03
2022-12-25T17:58:44.625Z,99600.84
2022-12-25T18:01:14.365Z,99592.94
2022-12-25T18:03:42.789Z,99612.22
2022-12-25T18:06:13.237Z,99610.69
2022-12-25T18:08:42.376Z,99593.34
2022-12-25T18:11:13.618Z,99603.47
2022-12-25T18:13:43.358Z,99598.38
2022-12-25T18:16:12.330Z,99606.19
2022-12-25T18:18:40.674Z,99610.13
2022-12-25T18:21:08.994Z,99619.22
2022-12-25T18:23:37.308Z,99614.03
2022-12-25T18:26:07.067Z,99610.88
2022-12-25T18:28:35.520Z,99610.09
2022-12-25T18:31:08.404Z,99607.44
2022-12-25T18:33:36.879Z,99621.94
2022-12-25T18:36:05.598Z,99601.50
2022-12-25T18:38:33.690Z,99613.72
2022-12-25T18:41:01.329Z,99613.72
2022-12-25T18:43:51.393Z,99614.88
2022-12-25T18:46:18.151Z,99618.41
2022-12-25T18:48:46.090Z,99618.47
2022-12-25T18:51:15.196Z,99620.84
2022-12-25T18:53:42.904Z,99625.19
2022-12-25T18:56:13.017Z,99617.41
2022-12-25T18:58:41.508Z,99608.66
2022-12-25T19:01:14.836Z,99610.63
2022-12-25T19:03:44.964Z,99607.47
2022-12-25T19:06:17.522Z,99607.03
2022-12-25T19:08:45.268Z,99605.59
2022-12-25T19:11:14.490Z,99613.81
2022-12-25T19:13:42.362Z,99607.13
2022-12-25T19:16:10.928Z,99575.34
2022-12-25T19:18:39.170Z,99613.47
2022-12-25T19:21:09.972Z,99607.16
2022-12-25T19:23:38.350Z,99605.16
2022-12-25T19:26:06.970Z,99606.31
2022-12-25T19:28:34.889Z,99605.19
2022-12-25T19:31:07.219Z,99609.53
2022-12-25T19:33:36.768Z,99602.03
2022-12-25T19:36:06.580Z,99598.53
2022-12-25T19:38:36.085Z,99581.16
2022-12-25T19:41:06.738Z,99581.91
2022-12-25T19:43:36.207Z,99584.25
2022-12-25T19:46:04.884Z,99583.09
2022-12-25T19:48:33.930Z,99574.88
2022-12-25T19:51:01.896Z,99587.44
2022-12-25T19:53:30.902Z,99590.25
2022-12-25T19:56:03.001Z,99585.06
2022-12-25T19:58:30.767Z,99596.13
2022-12-25T20:00:59.459Z,99595.69
2022-12-25T20:03:27.695Z,99598.84
2022-12-25T20:05:55.593Z,99597.31
2022-12-25T20:08:23.610Z,99632.31
2022-12-25T20:10:51.735Z,99640.22
2022-12-25T20:13:21.458Z,99647.28
2022-12-25T20:15:49.487Z,99593.78
2022-12-25T20:18:17.746Z,99616.25
2022-12-25T20:20:45.681Z,99615.44
2022-12-25T20:23:13.353Z,99624.53
2022-12-25T20:25:41.753Z,99620.56
2022-12-25T20:28:09.541Z,99616.63
2022-12-25T20:30:40.816Z,99614.22
2022-12-25T20:33:10.038Z,99621.34
2022-12-25T20:35:37.762Z,99620.13
2022-12-25T20:38:05.442Z,99612.66
2022-12-25T20:40:53.054Z,99616.56
2022-12-25T20:43:20.805Z,99629.56
2022-12-25T20:45:52.601Z,99580.47
2022-12-25T20:48:20.349Z,99639.81
2022-12-25T20:50:48.078Z,99641.81
2022-12-25T20:53:15.999Z,99651.28
2022-12-25T20:55:46.195Z,99635.09
2022-12-25T20:58:14.019Z,99644.63
2022-12-25T21:00:42.674Z,99650.53
2022-12-25T21:03:12.389Z,99649.34
2022-12-25T21:05:59.603Z,99661.16
2022-12-25T21:08:48.786Z,99661.56
2022-12-25T21:11:36.785Z,99665.09
2022-12-25T21:14:26.139Z,99656.78
2022-12-25T21:17:14.135Z,99671.78
2022-12-25T21:20:03.960Z,99675.75
2022-12-25T21:22:51.965Z,99688.34
2022-12-25T21:25:39.932Z,99676.53
2022-12-25T21:28:30.023Z,99691.88
2022-12-25T21:31:18.534Z,99680.09
2022-12-25T21:34:05.547Z,99678.50
2022-12-25T21:36:54.787Z,99667.81
2022-12-25T21:39:42.841Z,99684.81
2022-12-25T21:42:31.800Z,99680.06
2022-12-25T21:45:19.768Z,99679.28
2022-12-25T21:48:07.688Z,99675.00
2022-12-25T21:51:13.402Z,99679.69
2022-12-25T21:54:03.200Z,99687.59
2022-12-25T21:56:51.412Z,99676.59
2022-12-25T21:59:39.647Z,99656.09
2022-12-25T22:02:27.747Z,99706.13
2022-12-25T22:05:37.482Z,99704.50
2022-12-25T22:08:29.257Z,99673.38
2022-12-25T22:11:36.309Z,99699.34
2022-12-25T22:14:51.058Z,99704.91
2022-12-25T22:18:01.114Z,99719.06
2022-12-25T22:20:49.055Z,99719.41
2022-12-25T22:23:36.986Z,99725.28
2022-12-25T22:26:26.247Z,99736.34
2022-12-25T22:29:14.305Z,99715.09
2022-12-25T22:32:02.230Z,99732.41
2022-12-25T22:34:50.280Z,99739.91
2022-12-25T22:37:38.614Z,99720.22
2022-12-25T22:40:26.566Z,99733.22
2022-12-25T22:43:15.875Z,99726.09
2022-12-25T22:46:03.900Z,99734.72
2022-12-25T22:48:52.017Z,99733.91
2022-12-25T22:51:39.939Z,99746.91
2022-12-25T22:54:30.032Z,99744.53
2022-12-25T22:57:18.097Z,99742.56
2022-12-25T23:00:10.221Z,99743.72
2022-12-25T23:02:58.436Z,99746.59
2022-12-25T23:05:54.607Z,99739.00
2022-12-25T23:08:42.565Z,99750.84
2022-12-25T23:11:30.926Z,99737.44
2022-12-25T23:14:36.318Z,99742.16
2022-12-25T23:17:43.425Z,99756.75
2022-12-25T23:20:51.552Z,99746.16
2022-12-25T23:23:57.186Z,99754.44
2022-12-25T23:26:45.712Z,99751.28
2022-12-25T23:29:36.803Z,99740.25
2022-12-25T23:32:27.966Z,99752.84
2022-12-25T23:35:15.948Z,99762.69
2022-12-25T23:38:03.889Z,99748.09
2022-12-25T23:40:52.321Z,99752.06
2022-12-25T23:43:40.256Z,99753.69
2022-12-25T23:46:28.339Z,99745.03
2022-12-25T23:49:18.045Z,99731.59
2022-12-25T23:52:06.533Z,99737.91
2022-12-25T23:54:54.459Z,99729.63
2022-12-25T23:57:42.540Z,99738.63
